Flight Track Log - Related Links

Times and Time Zones

All times are in EDT time to prevent confusion due to time zone crossing. See the CDG4880 flight status page for this flight to view local times or setup timezone preferences in your user account.

Time Position Orientation Groundspeed Altitude Reporting Facility
EDT Latitude Longitude Course Direction KTS MPH feet Rate Location/Type
Thu 08:12:00 AM 27.0846 118.0266 178° South  Level Estimated
Thu 08:13:00 AM 27.0074 118.0298 178° South  Level Estimated
Thu 08:14:00 AM 26.9302 118.0329 178° South  Level Estimated
Thu 08:15:00 AM 26.8530 118.0360 178° South  Level Estimated
Thu 08:16:00 AM 26.7759 118.0392 178° South  Level Estimated
Thu 08:17:00 AM 26.6987 118.0423 178° South  Level Estimated
Thu 08:18:00 AM 26.6215 118.0454 178° South  Level Estimated
Thu 08:19:00 AM 26.5443 118.0485 178° South  Level Estimated
Thu 08:20:00 AM 26.4671 118.0516 178° South  Level Estimated
Thu 08:21:00 AM 26.3900 118.0547 178° South  Level Estimated
Thu 08:22:00 AM 26.3128 118.0578 178° South  Level Estimated
Thu 08:23:00 AM 26.2356 118.0609 178° South  Level Estimated
Thu 08:24:00 AM 26.1584 118.0640 178° South  Level Estimated
Thu 08:25:00 AM 26.0813 118.0671 178° South  Level Estimated
Thu 08:26:00 AM 26.0041 118.0702 178° South  Level Estimated
Thu 08:27:00 AM 25.9269 118.0732 178° South  Level Estimated
Thu 08:28:00 AM 25.8498 118.0763 178° South  Level Estimated
Thu 08:29:00 AM 25.7726 118.0794 178° South  Level Estimated
Thu 08:30:00 AM 25.6954 118.0825 178° South  Level Estimated
Thu 08:31:00 AM 25.6182 118.0855 178° South  Level Estimated
Thu 08:32:00 AM 25.5410 118.0886 178° South  Level Estimated
Thu 08:33:00 AM 25.4639 118.0916 178° South  Level Estimated
Thu 08:34:00 AM 25.3867 118.0947 178° South  Level Estimated
Thu 08:35:00 AM 25.3095 118.0977 178° South  Level Estimated
Thu 08:36:00 AM 25.2323 118.1008 178° South  Level Estimated
Thu 08:37:00 AM 25.1552 118.1038 178° South  Level Estimated
Thu 08:38:00 AM 25.0780 118.1068 178° South  Level Estimated
Thu 08:39:00 AM 25.0008 118.1099 178° South  Level Estimated
Thu 08:40:00 AM 24.9236 118.1129 178° South  Level Estimated
Thu 08:41:00 AM 24.8465 118.1159 178° South  Level Estimated
Thu 08:42:00 AM 24.7693 118.1189 178° South  Level Estimated
Thu 08:43:00 AM 24.6921 118.1220 178° South  Level Estimated
Thu 08:44:00 AM 24.6149 118.1250 178° South  Level Estimated
Thu 08:45:00 AM 24.5440 118.1277 178° South  Level Estimated
Thu 08:46:00 AM 24.5440 118.1277 North  Level Estimated
Thu 08:47:00 AM 24.5440 118.1277 North  Level Estimated
Thu 08:48:00 AM 24.5440 118.1277 North  Level Estimated
Thu 08:49:00 AM 24.5440 118.1277 North  Level Estimated
Thu 08:50:00 AM 24.5440 118.1277 North  Level Estimated
Thu 08:51:00 AM 24.5440 118.1277 North  Level Estimated

Login

Don't have an account? Register now (free) for customized features, flight alerts, and more!